Time;durP1;ratioP1;P1;durP2;ratioP2;P2;SDS_P1;SDS_P2;PMS_P1;PMS_P2;Temp;Humidity;BMP_temperature;BMP_pressure;BME280_temperature;BME280_humidity;BME280_pressure;Samples;Min_cycle;Max_cycle;Signal;HPM_P1;HPM_P2
2022/07/09 00:00:50;;;;;;;;;5.67;5.00;;;;;23.89;62.74;102601.13;5054627;28;66093;-84
2022/07/09 00:03:15;;;;;;;;;4.00;4.00;;;;;23.86;62.88;102593.06;5054353;28;69078;-84
2022/07/09 00:05:40;;;;;;;;;5.00;4.00;;;;;23.87;63.46;102605.66;5038005;28;45337;-84
2022/07/09 00:08:06;;;;;;;;;4.00;4.00;;;;;23.84;63.33;102597.59;5055034;28;56966;-84
2022/07/09 00:10:31;;;;;;;;;6.00;5.00;;;;;23.82;63.44;102607.53;5055241;28;46537;-84
2022/07/09 00:12:56;;;;;;;;;6.00;4.67;;;;;23.81;63.36;102600.38;5055503;28;45593;-84
2022/07/09 00:15:22;;;;;;;;;5.00;4.00;;;;;23.80;63.57;102603.94;5055440;28;45423;-85
2022/07/09 00:17:47;;;;;;;;;4.67;4.67;;;;;23.76;63.60;102597.72;5037053;28;45370;-85
2022/07/09 00:20:13;;;;;;;;;7.33;4.33;;;;;23.74;63.68;102593.25;5054825;28;68980;-85
2022/07/09 00:22:38;;;;;;;;;6.67;5.33;;;;;23.72;64.98;102596.00;5036667;28;62712;-85
2022/07/09 00:25:04;;;;;;;;;5.00;5.00;;;;;23.70;64.37;102587.03;5055321;28;59147;-81
2022/07/09 00:27:29;;;;;;;;;8.33;5.00;;;;;23.68;64.83;102582.56;5055232;28;45644;-82
2022/07/09 00:29:54;;;;;;;;;5.67;5.67;;;;;23.67;64.62;102583.50;5053378;28;69676;-84
2022/07/09 00:32:20;;;;;;;;;7.00;5.67;;;;;23.63;64.77;102582.63;5054871;28;45329;-84
2022/07/09 00:34:45;;;;;;;;;4.00;4.00;;;;;23.62;65.33;102590.72;5055428;28;45617;-83
2022/07/09 00:37:11;;;;;;;;;7.00;6.00;;;;;23.60;65.04;102592.56;5055252;28;46358;-84
2022/07/09 00:39:37;;;;;;;;;6.00;5.00;;;;;23.57;65.61;102582.72;5055413;28;46533;-84
2022/07/09 00:42:03;;;;;;;;;5.00;5.00;;;;;23.53;65.61;102589.94;5055428;28;45489;-84
2022/07/09 00:44:28;;;;;;;;;10.00;5.00;;;;;23.49;65.85;102592.72;5055399;28;45549;-83
2022/07/09 00:46:53;;;;;;;;;5.00;5.00;;;;;23.40;66.29;102588.34;5054866;28;61400;-84
2022/07/09 00:49:19;;;;;;;;;5.00;5.00;;;;;23.36;66.59;102593.81;5054628;28;61124;-84
2022/07/09 00:51:44;;;;;;;;;4.00;4.00;;;;;23.30;66.71;102589.41;5053712;28;68551;-84
2022/07/09 00:54:10;;;;;;;;;7.33;5.67;;;;;23.23;67.16;102588.59;5037156;28;59819;-84
2022/07/09 00:56:35;;;;;;;;;6.33;5.00;;;;;23.18;67.11;102590.47;5035767;28;56434;-84
2022/07/09 00:59:01;;;;;;;;;6.00;4.00;;;;;23.13;67.60;102583.34;5035965;28;71179;-84
2022/07/09 01:01:27;;;;;;;;;6.00;4.00;;;;;23.09;67.90;102593.28;5055032;28;45485;-84
2022/07/09 01:03:52;;;;;;;;;4.33;4.33;;;;;23.00;68.08;102580.78;5056344;28;45265;-84
2022/07/09 01:06:17;;;;;;;;;5.33;5.33;;;;;22.96;68.44;102580.88;5057747;28;55476;-83
2022/07/09 01:08:43;;;;;;;;;6.67;6.00;;;;;22.91;68.95;102583.63;5057352;28;63902;-84
2022/07/09 01:11:08;;;;;;;;;5.67;5.00;;;;;22.87;69.16;102570.19;5057535;28;65330;-84
2022/07/09 01:13:33;;;;;;;;;4.33;4.33;;;;;22.82;69.20;102572.03;5040020;28;51270;-84
2022/07/09 01:15:59;;;;;;;;;5.67;5.67;;;;;22.79;69.59;102567.56;5056678;28;56802;-83
2022/07/09 01:18:24;;;;;;;;;5.00;5.00;;;;;22.74;70.06;102567.66;5057978;28;47165;-84
2022/07/09 01:20:50;;;;;;;;;4.00;4.00;;;;;22.71;70.06;102564.97;5057551;28;65718;-84
2022/07/09 01:23:15;;;;;;;;;5.00;5.00;;;;;;;;5058274;28;45423;-85
2022/07/09 01:25:43;;;;;;;;;5.67;4.67;;;;;22.62;70.94;102562.38;5058457;28;45525;-83
2022/07/09 01:28:09;;;;;;;;;7.00;6.00;;;;;22.60;71.18;102566.00;5039834;28;47575;-83
2022/07/09 01:30:37;;;;;;;;;5.00;5.00;;;;;22.56;71.52;102564.25;5057482;28;46638;-83
2022/07/09 01:33:03;;;;;;;;;4.00;4.00;;;;;22.52;72.20;102562.50;5057967;28;45455;-84
2022/07/09 01:35:28;;;;;;;;;5.33;5.33;;;;;22.51;72.24;102563.41;5053278;28;45356;-84
2022/07/09 01:37:54;;;;;;;;;5.00;5.00;;;;;22.46;72.17;102558.97;5058125;28;47358;-84
2022/07/09 01:40:20;;;;;;;;;5.33;5.33;;;;;22.44;72.67;102558.09;5057175;28;45502;-84
2022/07/09 01:42:46;;;;;;;;;5.00;5.00;;;;;22.44;72.80;102560.78;5058218;28;45391;-84
2022/07/09 01:45:12;;;;;;;;;8.33;5.67;;;;;22.43;73.02;102556.31;5057224;28;45525;-83
2022/07/09 01:47:37;;;;;;;;;5.67;5.67;;;;;22.43;73.63;102564.41;5057486;28;46160;-84
2022/07/09 01:50:03;;;;;;;;;5.00;5.00;;;;;22.40;73.62;102559.03;5057094;28;63194;-83
2022/07/09 01:52:29;;;;;;;;;5.00;5.00;;;;;22.39;74.69;102554.56;5057712;28;45155;-85
2022/07/09 01:54:54;;;;;;;;;6.00;5.00;;;;;22.36;74.77;102543.81;5057875;28;45563;-84
2022/07/09 01:57:20;;;;;;;;;6.67;6.00;;;;;22.35;75.26;102544.72;5056415;28;69465;-84
2022/07/09 01:59:45;;;;;;;;;7.33;6.00;;;;;22.34;75.37;102540.28;5055882;28;66095;-83
2022/07/09 02:02:10;;;;;;;;;7.00;5.00;;;;;22.31;75.96;102536.69;5056877;28;57528;-84
2022/07/09 02:04:36;;;;;;;;;5.00;5.00;;;;;22.27;76.01;102532.28;5056649;28;53768;-83
2022/07/09 02:07:01;;;;;;;;;7.00;6.33;;;;;22.22;75.91;102533.22;5057366;28;52150;-84
2022/07/09 02:09:26;;;;;;;;;7.00;6.00;;;;;22.18;76.61;102535.94;5056721;28;45464;-84
2022/07/09 02:11:52;;;;;;;;;6.00;4.67;;;;;22.12;76.88;102526.16;5057284;28;45304;-83
2022/07/09 02:14:17;;;;;;;;;6.67;6.67;;;;;22.07;76.88;102532.44;5055992;28;60145;-83
2022/07/09 02:16:42;;;;;;;;;3.33;3.00;;;;;22.00;77.26;102530.69;5056837;28;46517;-83
2022/07/09 02:19:08;;;;;;;;;5.33;5.00;;;;;21.94;77.45;102526.28;5056058;28;66089;-84
2022/07/09 02:21:33;;;;;;;;;6.67;5.67;;;;;21.89;77.88;102525.41;5056809;28;63892;-85
2022/07/09 02:23:59;;;;;;;;;6.00;5.00;;;;;21.85;78.79;102532.66;5057030;28;45292;-85
2022/07/09 02:26:29;;;;;;;;;7.67;5.67;;;;;21.79;79.06;102524.63;5056726;28;46289;-83
2022/07/09 02:28:55;;;;;;;;;6.00;6.00;;;;;21.77;79.66;102512.97;5056689;28;46269;-84
2022/07/09 02:31:20;;;;;;;;;6.33;6.33;;;;;21.74;79.66;102525.59;5056798;28;45630;-83
2022/07/09 02:33:45;;;;;;;;;6.00;6.00;;;;;21.68;79.97;102516.66;5056625;28;56364;-84
2022/07/09 02:36:11;;;;;;;;;6.00;6.00;;;;;21.67;80.52;102517.53;5054852;28;68785;-84
2022/07/09 02:38:36;;;;;;;;;6.67;5.00;;;;;21.63;80.20;102514.91;5055593;28;68405;-84
2022/07/09 02:41:01;;;;;;;;;6.00;6.00;;;;;21.60;81.03;102517.59;5056930;28;54120;-84
2022/07/09 02:43:27;;;;;;;;;5.67;5.67;;;;;21.54;81.42;102518.56;5056474;28;51188;-84
2022/07/09 02:45:55;;;;;;;;;6.00;6.00;;;;;21.50;81.75;102513.22;5056871;28;46110;-85
2022/07/09 02:48:21;;;;;;;;;7.00;7.00;;;;;21.44;81.94;102519.53;5056488;28;45455;-84
2022/07/09 02:50:46;;;;;;;;;7.00;7.00;;;;;21.39;81.79;102516.88;5056541;28;45407;-84
2022/07/09 02:53:11;;;;;;;;;8.67;6.00;;;;;21.34;84.34;102518.69;5056181;28;54853;-84
2022/07/09 02:55:37;;;;;;;;;6.67;6.67;;;;;21.33;82.68;102516.91;5055657;28;66452;-84
2022/07/09 02:58:02;;;;;;;;;8.00;7.00;;;;;21.30;83.30;102524.97;5054693;28;61922;-83
2022/07/09 03:00:27;;;;;;;;;8.33;5.33;;;;;21.28;83.59;102521.38;5037891;28;59680;-84
2022/07/09 03:02:52;;;;;;;;;7.00;6.00;;;;;21.26;84.04;102533.06;5055757;28;57461;-84
2022/07/09 03:05:18;;;;;;;;;6.33;6.33;;;;;21.22;83.78;102528.59;5055540;28;65237;-84
2022/07/09 03:07:43;;;;;;;;;7.00;7.00;;;;;21.18;85.13;102528.59;5055968;28;45597;-83
2022/07/09 03:10:09;;;;;;;;;8.00;6.00;;;;;21.16;84.42;102534.91;5055724;28;60405;-83
2022/07/09 03:12:34;;;;;;;;;9.00;7.00;;;;;21.14;85.11;102534.00;5056049;28;51623;-83
2022/07/09 03:14:59;;;;;;;;;7.67;6.33;;;;;21.12;84.82;102535.81;5056073;28;47305;-85
2022/07/09 03:17:26;;;;;;;;;6.67;6.67;;;;;21.09;84.83;102541.19;5056562;28;45483;-84
2022/07/09 03:19:52;;;;;;;;;8.33;7.00;;;;;21.08;85.40;102542.09;5053692;28;45285;-84
2022/07/09 03:22:17;;;;;;;;;9.67;7.67;;;;;21.03;85.77;102530.47;5055975;28;53446;-84
2022/07/09 03:24:42;;;;;;;;;8.00;6.33;;;;;21.01;85.78;102532.28;5056465;28;47409;-84
2022/07/09 03:27:08;;;;;;;;;6.00;6.00;;;;;20.97;85.76;102533.22;5054386;28;63041;-84
2022/07/09 03:29:33;;;;;;;;;6.00;5.67;;;;;20.92;85.84;102528.75;5056487;28;45479;-84
2022/07/09 03:31:58;;;;;;;;;11.33;7.33;;;;;20.88;86.75;102535.06;5037511;28;56431;-84
2022/07/09 03:34:24;;;;;;;;;8.67;7.00;;;;;20.82;86.85;102534.16;5037684;28;51756;-84
2022/07/09 03:36:49;;;;;;;;;8.00;8.00;;;;;20.81;87.04;102544.00;5054674;28;66199;-84
2022/07/09 03:39:14;;;;;;;;;11.00;10.00;;;;;20.79;88.13;102535.09;5056014;28;45339;-84
2022/07/09 03:41:40;;;;;;;;;9.33;8.00;;;;;20.80;87.30;102534.19;5056179;28;45368;-83
2022/07/09 03:44:05;;;;;;;;;7.67;7.67;;;;;20.80;87.30;102538.66;5056003;28;46443;-83
2022/07/09 03:46:31;;;;;;;;;8.00;7.00;;;;;20.76;88.11;102556.56;5054822;28;57727;-84
2022/07/09 03:48:56;;;;;;;;;8.33;7.33;;;;;20.74;87.81;102547.63;5055564;28;45536;-83
2022/07/09 03:51:22;;;;;;;;;7.00;7.00;;;;;20.76;88.29;102547.63;5055841;28;45630;-83
2022/07/09 03:53:47;;;;;;;;;11.33;9.33;;;;;20.76;88.90;102542.25;5020695;28;46283;-82
2022/07/09 03:56:12;;;;;;;;;8.00;7.00;;;;;20.76;89.13;102547.63;5054514;28;63185;-83
2022/07/09 03:58:38;;;;;;;;;7.00;7.00;;;;;20.74;88.61;102553.00;5055179;28;61757;-84
2022/07/09 04:01:03;;;;;;;;;9.00;9.00;;;;;20.76;89.04;102561.94;5053543;28;59121;-83
2022/07/09 04:03:28;;;;;;;;;10.00;10.00;;;;;20.74;90.56;102565.53;5055338;28;47934;-84
2022/07/09 04:05:54;;;;;;;;;11.67;11.67;;;;;20.68;90.19;102563.75;5055011;28;67058;-84
2022/07/09 04:08:19;;;;;;;;;10.67;8.67;;;;;20.67;89.95;102560.19;5037289;28;52695;-83
2022/07/09 04:10:44;;;;;;;;;9.67;9.67;;;;;20.65;89.46;102567.34;5055231;28;45336;-84
2022/07/09 04:13:10;;;;;;;;;8.00;8.00;;;;;20.63;89.59;102565.56;5037222;28;50497;-84
2022/07/09 04:15:35;;;;;;;;;8.67;8.00;;;;;20.62;90.28;102559.31;5055044;28;54603;-84
2022/07/09 04:18:01;;;;;;;;;10.00;10.00;;;;;20.61;90.35;102562.91;5054213;28;60218;-83
2022/07/09 04:20:26;;;;;;;;;9.33;9.33;;;;;20.60;90.04;102569.13;5055006;28;45754;-83
2022/07/09 04:22:52;;;;;;;;;12.67;11.00;;;;;20.60;90.53;102562.88;5055234;28;46458;-83
2022/07/09 04:25:18;;;;;;;;;11.67;11.33;;;;;20.57;90.43;102566.47;5055811;28;45509;-83
2022/07/09 04:27:43;;;;;;;;;9.00;9.00;;;;;20.58;90.80;102560.22;5055346;28;45600;-83
2022/07/09 04:30:09;;;;;;;;;7.67;7.67;;;;;20.57;90.70;102565.59;5054965;28;45300;-83
2022/07/09 04:32:35;;;;;;;;;10.00;8.00;;;;;20.55;90.46;102560.22;5055231;28;47181;-83
2022/07/09 04:35:00;;;;;;;;;8.00;8.00;;;;;20.52;90.79;102556.66;5054803;28;45482;-84
2022/07/09 04:37:25;;;;;;;;;14.00;11.33;;;;;20.53;90.88;102562.00;5054408;28;45450;-83
2022/07/09 04:39:51;;;;;;;;;12.00;8.00;;;;;20.52;91.38;102552.19;5058204;28;45320;-83
2022/07/09 04:42:16;;;;;;;;;12.67;9.33;;;;;20.52;91.20;102548.59;5057099;28;68356;-83
2022/07/09 04:44:42;;;;;;;;;10.67;10.00;;;;;20.51;91.82;102557.56;5058765;28;45441;-83
2022/07/09 04:47:09;;;;;;;;;8.00;8.00;;;;;20.46;91.60;102549.53;5058698;28;45297;-83
2022/07/09 04:49:34;;;;;;;;;12.33;8.67;;;;;20.45;91.30;102560.19;5057398;28;45411;-84
2022/07/09 04:51:59;;;;;;;;;10.67;9.67;;;;;20.44;91.78;102558.41;5056973;28;46934;-83
2022/07/09 04:54:25;;;;;;;;;12.00;10.33;;;;;20.41;91.97;102565.59;5058615;28;45579;-83
2022/07/09 04:56:50;;;;;;;;;8.00;8.00;;;;;20.38;91.97;102570.06;5175192;22;55243;-84
2022/07/09 04:59:16;;;;;;;;;10.33;9.33;;;;;20.34;92.34;102571.84;5077905;28;45285;-84
2022/07/09 05:01:42;;;;;;;;;9.00;9.00;;;;;20.29;93.13;102556.66;5078657;28;47605;-84
2022/07/09 05:04:07;;;;;;;;;15.00;13.00;;;;;20.27;93.40;102562.03;5078628;28;45301;-84
2022/07/09 05:06:32;;;;;;;;;13.00;9.67;;;;;20.25;94.15;102561.16;5077864;28;60624;-85
2022/07/09 05:08:58;;;;;;;;;13.33;12.67;;;;;20.22;94.89;102561.13;5079043;28;45582;-83
2022/07/09 05:11:23;;;;;;;;;12.00;12.00;;;;;20.22;94.87;102562.94;5077504;28;67088;-84
2022/07/09 05:13:48;;;;;;;;;14.00;10.67;;;;;20.24;94.59;102564.75;5077806;28;45431;-83
2022/07/09 05:16:14;;;;;;;;;15.33;12.00;;;;;20.25;93.73;102562.94;5078902;28;45485;-84
2022/07/09 05:18:39;;;;;;;;;12.00;12.00;;;;;20.29;94.12;102565.59;5078465;28;45626;-83
2022/07/09 05:21:05;;;;;;;;;12.67;12.67;;;;;20.31;94.14;102566.50;5078225;28;51030;-83
2022/07/09 05:23:30;;;;;;;;;12.33;10.00;;;;;20.30;94.57;102561.16;5078156;28;45375;-83
2022/07/09 05:25:56;;;;;;;;;11.00;10.33;;;;;20.33;94.06;102567.38;5078052;28;57975;-84
2022/07/09 05:28:21;;;;;;;;;11.00;9.67;;;;;20.35;94.07;102565.59;5078689;28;45521;-83
2022/07/09 05:30:46;;;;;;;;;13.00;10.00;;;;;20.36;94.63;102562.03;5076785;28;65873;-84
2022/07/09 05:33:12;;;;;;;;;13.00;13.00;;;;;20.37;94.06;102568.28;5077825;28;59479;-85
2022/07/09 05:35:37;;;;;;;;;11.33;11.33;;;;;20.40;94.41;102566.50;5077561;28;57493;-84
2022/07/09 05:38:02;;;;;;;;;13.00;11.33;;;;;20.42;95.02;102570.06;5077489;28;45697;-83
2022/07/09 05:40:28;;;;;;;;;12.33;11.33;;;;;20.41;94.52;102564.69;5077937;28;46288;-84
2022/07/09 05:42:53;;;;;;;;;12.33;9.00;;;;;20.42;95.04;102564.69;5076798;28;63167;-86
2022/07/09 05:45:18;;;;;;;;;13.00;13.00;;;;;20.44;95.35;102563.78;5072403;28;46007;-78
2022/07/09 05:47:44;;;;;;;;;13.33;12.00;;;;;20.45;94.91;102561.09;5075884;28;48148;-78
2022/07/09 05:50:09;;;;;;;;;14.33;13.00;;;;;20.51;94.76;102560.25;5077156;28;47385;-77
2022/07/09 05:52:35;;;;;;;;;10.00;10.00;;;;;20.51;94.67;102562.94;5076805;28;62993;-78
2022/07/09 05:55:00;;;;;;;;;9.00;9.00;;;;;20.53;94.70;102563.81;5077499;28;45288;-79
2022/07/09 05:57:26;;;;;;;;;13.00;13.00;;;;;20.56;94.96;102563.78;5056858;28;45609;-77
2022/07/09 05:59:51;;;;;;;;;10.67;10.33;;;;;20.59;93.88;102569.16;5053572;28;47305;-78
2022/07/09 06:02:18;;;;;;;;;10.33;10.33;;;;;20.60;93.81;102563.78;5055373;28;62567;-78
2022/07/09 06:04:44;;;;;;;;;12.67;11.67;;;;;20.61;93.71;102562.91;5056500;28;45366;-78
2022/07/09 06:07:09;;;;;;;;;10.67;10.67;;;;;20.65;93.89;102561.97;5056527;28;45567;-77
2022/07/09 06:09:34;;;;;;;;;17.00;12.67;;;;;20.69;94.24;102565.53;5055333;28;70042;-78
2022/07/09 06:12:00;;;;;;;;;12.00;12.00;;;;;20.72;94.05;102568.22;5054382;28;53379;-78
2022/07/09 06:14:25;;;;;;;;;13.33;12.67;;;;;20.75;94.04;102564.63;5054415;28;45573;-78
2022/07/09 06:16:50;;;;;;;;;12.33;12.33;;;;;20.78;93.41;102556.56;5056022;28;59673;-77
2022/07/09 06:19:16;;;;;;;;;16.00;11.33;;;;;20.84;94.00;102561.91;5056074;28;67001;-78
2022/07/09 06:21:42;;;;;;;;;14.00;11.33;;;;;20.89;93.32;102566.38;5056200;28;45645;-78
2022/07/09 06:24:07;;;;;;;;;9.33;9.33;;;;;20.95;93.38;102572.63;5055569;28;60246;-79
2022/07/09 06:26:33;;;;;;;;;12.00;9.33;;;;;21.00;93.30;102568.13;5056257;28;53862;-78
2022/07/09 06:28:59;;;;;;;;;10.33;9.00;;;;;21.04;92.94;102569.88;5056351;28;46630;-77
2022/07/09 06:31:25;;;;;;;;;14.33;13.00;;;;;21.09;92.63;102566.28;5056416;28;45712;-78
2022/07/09 06:33:50;;;;;;;;;8.00;8.00;;;;;21.13;92.83;102565.34;5056927;28;45405;-78
2022/07/09 06:36:15;;;;;;;;;15.67;11.67;;;;;21.15;92.93;102554.63;5051694;28;59960;-77
2022/07/09 06:41:29;;;;;;;;;10.33;10.33;;;;;21.20;91.72;102558.16;5033961;28;45680;-77
2022/07/09 06:43:54;;;;;;;;;12.33;11.33;;;;;21.22;92.04;102566.22;5055364;28;57876;-78
2022/07/09 06:46:19;;;;;;;;;9.00;9.00;;;;;21.26;91.71;102557.25;5056633;28;45640;-77
2022/07/09 06:48:45;;;;;;;;;12.33;10.00;;;;;21.31;92.14;102566.22;5056044;28;50528;-77
2022/07/09 06:51:10;;;;;;;;;8.00;8.00;;;;;21.34;91.95;102564.38;5036410;28;64996;-77
2022/07/09 06:53:37;;;;;;;;;12.33;11.33;;;;;21.38;91.83;102562.56;5055877;28;46052;-77
2022/07/09 06:56:02;;;;;;;;;11.00;11.00;;;;;21.41;92.04;102555.38;5057146;28;45771;-77
2022/07/09 06:58:28;;;;;;;;;10.00;8.67;;;;;21.49;91.82;102557.13;5068443;28;47329;-78
2022/07/09 07:00:53;;;;;;;;;11.00;9.67;;;;;21.55;91.31;102557.06;5062247;28;66876;-77
2022/07/09 07:03:18;;;;;;;;;11.33;10.33;;;;;21.61;91.61;102557.03;5061418;28;56330;-77
2022/07/09 07:05:44;;;;;;;;;12.67;10.00;;;;;21.63;91.96;102547.16;5059831;28;45637;-77
2022/07/09 07:08:09;;;;;;;;;11.00;10.00;;;;;21.68;91.31;102551.63;5058329;28;66227;-78
2022/07/09 07:10:34;;;;;;;;;16.00;12.67;;;;;21.75;91.30;102556.94;5061957;28;45442;-76
2022/07/09 07:13:00;;;;;;;;;10.33;10.33;;;;;21.77;91.08;102547.94;5059544;28;55872;-76
2022/07/09 07:15:25;;;;;;;;;13.67;13.00;;;;;21.83;91.19;102550.56;5055838;28;45494;-77
2022/07/09 07:17:51;;;;;;;;;12.00;11.67;;;;;21.86;90.74;102547.88;5069584;28;58541;-78
2022/07/09 07:20:19;;;;;;;;;10.67;10.67;;;;;21.88;91.00;102554.13;5065503;28;57776;-77
2022/07/09 07:22:44;;;;;;;;;13.33;11.00;;;;;21.96;90.96;102544.19;5064697;28;45387;-76
2022/07/09 07:25:10;;;;;;;;;10.33;10.33;;;;;22.01;90.64;102552.22;5063238;28;45448;-77
2022/07/09 07:27:35;;;;;;;;;10.67;10.67;;;;;22.05;90.41;102550.38;5055550;28;62585;-78
2022/07/09 07:30:00;;;;;;;;;11.00;10.33;;;;;22.12;90.33;102541.41;5065107;28;66494;-77
2022/07/09 07:32:26;;;;;;;;;12.00;10.00;;;;;22.13;90.17;102544.06;5064575;28;45354;-76
2022/07/09 07:34:51;;;;;;;;;10.67;10.67;;;;;22.20;90.51;102545.78;5054320;28;45473;-78
2022/07/09 07:37:16;;;;;;;;;17.00;11.00;;;;;22.24;90.23;102541.25;5061465;28;62457;-78
2022/07/09 07:39:42;;;;;;;;;12.00;12.00;;;;;22.30;89.45;102543.88;5065166;28;68148;-77
2022/07/09 07:42:07;;;;;;;;;8.00;7.00;;;;;22.34;89.26;102545.66;5066232;28;45597;-78
2022/07/09 07:44:33;;;;;;;;;15.33;8.67;;;;;22.42;89.35;102548.25;5065721;28;57073;-78
2022/07/09 07:46:58;;;;;;;;;8.67;8.67;;;;;22.47;89.19;102543.69;5065910;28;47619;-79
2022/07/09 07:49:23;;;;;;;;;11.00;10.67;;;;;22.53;88.87;102549.03;5067889;28;45519;-79
2022/07/09 07:51:49;;;;;;;;;9.67;8.33;;;;;22.59;88.79;102550.78;5067267;28;63214;-79
2022/07/09 07:54:14;;;;;;;;;12.00;8.00;;;;;22.63;88.78;102544.41;5064737;28;59363;-79
2022/07/09 08:00:20;;;;;;;;;7.33;7.00;;;;;22.78;88.55;102548.72;5051177;28;45644;-78
2022/07/09 08:02:45;;;;;;;;;7.33;7.33;;;;;22.82;88.34;102546.00;5048155;28;50320;-78
2022/07/09 08:05:10;;;;;;;;;7.67;6.67;;;;;22.87;88.00;102540.56;5045862;28;45737;-78
2022/07/09 08:07:36;;;;;;;;;8.00;8.00;;;;;22.92;87.28;102539.59;5033626;28;66453;-79
2022/07/09 08:10:01;;;;;;;;;7.00;7.00;;;;;22.96;86.48;102541.34;5048731;28;45597;-78
2022/07/09 08:12:27;;;;;;;;;6.33;6.00;;;;;23.00;86.03;102543.06;5050688;28;45816;-77
2022/07/09 08:14:52;;;;;;;;;4.33;4.33;;;;;23.05;85.53;102548.41;5047388;28;61910;-78
2022/07/09 08:17:17;;;;;;;;;8.00;7.00;;;;;23.08;85.63;102539.41;5049384;28;68873;-78
2022/07/09 08:19:43;;;;;;;;;8.33;6.00;;;;;23.12;85.10;102527.69;5053088;28;63290;-78
2022/07/09 08:22:08;;;;;;;;;8.00;5.00;;;;;23.16;84.35;102534.78;5048261;28;45501;-79
2022/07/09 08:24:33;;;;;;;;;6.00;6.00;;;;;23.22;84.14;102526.59;5048900;28;55081;-79
2022/07/09 08:26:59;;;;;;;;;7.00;7.00;;;;;23.23;84.41;102523.91;5045022;28;71457;-78
2022/07/09 08:29:25;;;;;;;;;8.67;6.67;;;;;23.31;84.39;102529.16;5049320;28;55399;-79
2022/07/09 08:31:50;;;;;;;;;11.00;6.33;;;;;23.37;84.15;102521.00;5050715;28;45511;-80
2022/07/09 08:34:16;;;;;;;;;9.67;9.00;;;;;23.43;84.17;102528.09;5051026;28;45576;-80
2022/07/09 08:36:42;;;;;;;;;11.33;8.33;;;;;23.47;83.44;102524.44;5050961;28;46486;-80
2022/07/09 08:39:07;;;;;;;;;7.00;5.67;;;;;23.50;82.72;102524.41;5054205;28;45807;-81
2022/07/09 08:41:32;;;;;;;;;6.00;6.00;;;;;23.55;82.85;102524.34;5050149;28;63305;-79
2022/07/09 08:43:58;;;;;;;;;8.33;6.00;;;;;23.60;82.19;102530.53;5053652;28;45532;-79
2022/07/09 08:46:23;;;;;;;;;6.67;6.00;;;;;23.63;81.76;102525.13;5049278;28;47270;-79
2022/07/09 08:48:49;;;;;;;;;6.00;6.00;;;;;23.68;81.98;102521.44;5053594;28;45458;-77
2022/07/09 08:51:14;;;;;;;;;10.00;7.33;;;;;23.72;81.91;102523.16;5035470;28;45499;-79
2022/07/09 08:53:41;;;;;;;;;9.67;9.67;;;;;23.76;81.51;102515.91;5049064;28;45547;-79
2022/07/09 08:56:08;;;;;;;;;9.00;7.00;;;;;23.81;81.58;102507.72;5048483;28;46510;-79
2022/07/09 08:58:33;;;;;;;;;6.00;6.00;;;;;23.86;80.79;102513.94;5058953;28;45519;-79
2022/07/09 09:01:00;;;;;;;;;8.00;8.00;;;;;23.91;80.76;102501.25;5063517;28;45562;-78
2022/07/09 09:03:25;;;;;;;;;6.67;6.67;;;;;23.93;80.54;102494.94;5073979;27;45427;-78
2022/07/09 09:06:05;;;;;;;;;6.67;6.00;;;;;23.97;80.46;102502.06;5059743;28;70813;-78
2022/07/09 09:08:38;;;;;;;;;6.00;6.00;;;;;24.05;79.34;102502.78;5058078;28;45702;-75
2022/07/09 09:11:05;;;;;;;;;5.67;5.67;;;;;24.12;79.42;102499.97;5073611;27;45552;-80
2022/07/09 09:13:31;;;;;;;;;5.67;5.67;;;;;24.15;79.01;102498.09;5071332;28;45734;-80
2022/07/09 09:16:06;;;;;;;;;6.00;5.67;;;;;24.17;79.34;102490.84;5068140;27;47280;-79
2022/07/09 09:18:33;;;;;;;;;6.67;6.33;;;;;24.23;79.21;102492.53;5069234;27;45403;-79
2022/07/09 09:21:03;;;;;;;;;9.00;6.67;;;;;24.25;79.46;102491.63;5070685;27;45518;-79
2022/07/09 09:23:29;;;;;;;;;6.00;6.00;;;;;24.29;79.75;102489.75;5067679;27;45509;-80
2022/07/09 09:25:54;;;;;;;;;5.00;5.00;;;;;24.33;79.46;102486.06;5069179;27;53980;-80
2022/07/09 09:28:19;;;;;;;;;9.00;6.33;;;;;24.39;79.34;102483.25;5068434;28;66552;-80
2022/07/09 09:30:46;;;;;;;;;6.67;5.33;;;;;24.43;79.44;102486.78;5069912;28;53015;-82
2022/07/09 09:33:18;;;;;;;;;4.00;4.00;;;;;24.50;78.78;102486.66;5070274;28;45566;-82
2022/07/09 09:35:44;;;;;;;;;6.67;6.00;;;;;24.54;78.00;102495.56;5062977;28;46176;-82
2022/07/09 09:38:10;;;;;;;;;8.00;5.67;;;;;24.61;77.74;102499.00;5068825;28;45878;-81
2022/07/09 09:40:36;;;;;;;;;6.67;4.00;;;;;24.63;77.83;102497.19;5052183;28;45533;-81
2022/07/09 09:43:02;;;;;;;;;6.67;5.00;;;;;24.69;77.21;102497.06;5053327;28;45585;-82
2022/07/09 09:45:28;;;;;;;;;5.33;5.33;;;;;24.74;76.94;102492.44;5067635;28;47453;-81
2022/07/09 09:47:54;;;;;;;;;5.33;5.33;;;;;24.79;77.08;102495.94;5070245;28;45509;-79
2022/07/09 09:50:21;;;;;;;;;6.33;5.33;;;;;24.82;77.23;102490.44;5061586;27;62131;-78
2022/07/09 09:52:48;;;;;;;;;4.00;4.00;;;;;24.87;77.21;102488.53;5059607;27;45466;-78
2022/07/09 09:55:14;;;;;;;;;7.00;6.00;;;;;24.90;77.53;102483.06;5068620;28;47712;-80
2022/07/09 09:57:40;;;;;;;;;4.67;4.67;;;;;24.95;76.45;102481.16;5071731;28;45493;-79
2022/07/09 10:00:06;;;;;;;;;4.00;4.00;;;;;25.00;76.74;102484.66;5071803;28;45453;-76
2022/07/09 10:02:32;;;;;;;;;7.00;6.00;;;;;25.07;77.14;102485.41;5072962;28;45429;-77
2022/07/09 10:04:58;;;;;;;;;6.00;5.33;;;;;25.15;75.10;102477.16;5070672;28;47330;-76
2022/07/09 10:07:23;;;;;;;;;6.00;4.00;;;;;25.21;75.67;102479.72;5072570;28;45512;-79
2022/07/09 10:09:53;;;;;;;;;5.33;5.00;;;;;25.21;75.54;102475.19;5049711;28;56175;-79
2022/07/09 10:12:28;;;;;;;;;4.67;4.00;;;;;25.25;75.17;102478.72;5070573;27;45405;-77
2022/07/09 10:14:54;;;;;;;;;4.00;4.00;;;;;25.33;74.92;102474.88;5060844;28;47806;-74
2022/07/09 10:17:20;;;;;;;;;6.00;6.00;;;;;25.38;73.81;102480.19;5058958;28;45500;-77
2022/07/09 10:20:03;;;;;;;;;6.00;5.00;;;;;25.43;75.53;102478.25;5060809;28;45986;-77
2022/07/09 10:22:43;;;;;;;;;5.00;5.00;;;;;25.52;74.93;102474.44;5062108;28;45608;-77
2022/07/09 10:25:11;;;;;;;;;5.00;4.00;;;;;25.57;73.82;102477.91;5065222;28;47432;-77
2022/07/09 10:27:47;;;;;;;;;6.00;5.00;;;;;25.61;73.84;102479.59;5070235;28;45518;-77
2022/07/09 10:30:35;;;;;;;;;6.00;6.00;;;;;25.61;73.79;102469.66;5066436;28;45554;-77
2022/07/09 10:33:08;;;;;;;;;14.67;9.00;;;;;25.62;73.82;102465.16;5067974;28;45907;-78
2022/07/09 10:35:48;;;;;;;;;6.00;5.00;;;;;25.70;72.89;102473.06;5063771;28;47604;-78
2022/07/09 10:38:14;;;;;;;;;18.67;14.33;;;;;25.78;73.61;102468.34;5070615;27;45535;-74
2022/07/09 10:40:44;;;;;;;;;23.33;19.33;;;;;25.85;74.07;102462.75;5069747;28;45531;-75
2022/07/09 10:43:11;;;;;;;;;6.00;4.00;;;;;25.94;72.82;102466.13;5067383;27;45569;-73
2022/07/09 10:45:37;;;;;;;;;19.67;12.33;;;;;25.98;72.65;102454.28;5066363;27;46538;-76
2022/07/09 10:48:04;;;;;;;;;21.00;13.00;;;;;26.00;72.97;102453.34;5064057;28;45560;-76
2022/07/09 10:50:31;;;;;;;;;19.33;15.00;;;;;26.01;73.11;102460.53;5067438;28;45638;-77
2022/07/09 10:52:57;;;;;;;;;20.33;12.67;;;;;26.07;72.69;102449.53;5063604;27;47154;-78
2022/07/09 10:55:27;;;;;;;;;13.00;9.00;;;;;26.18;72.97;102448.34;5061360;28;47480;-78
2022/07/09 10:57:53;;;;;;;;;5.00;5.00;;;;;26.21;71.83;102437.44;5064741;27;45505;-77
2022/07/09 11:00:21;;;;;;;;;8.67;8.67;;;;;26.26;71.61;102440.84;5064875;27;45542;-77
2022/07/09 11:03:04;;;;;;;;;12.00;9.00;;;;;26.29;70.93;102436.25;5050011;28;45385;-78
2022/07/09 11:05:34;;;;;;;;;10.00;7.67;;;;;26.30;70.44;102437.13;5065751;28;47458;-79
2022/07/09 11:08:05;;;;;;;;;9.67;8.00;;;;;26.31;70.86;102429.00;5068690;27;45529;-77
2022/07/09 11:10:31;;;;;;;;;8.33;8.33;;;;;26.30;70.34;102431.72;5064640;27;45920;-77
2022/07/09 11:12:59;;;;;;;;;12.00;9.67;;;;;26.28;69.73;102436.31;5051380;28;45732;-78
2022/07/09 11:15:28;;;;;;;;;8.33;6.33;;;;;26.24;69.88;102421.06;5070436;28;48361;-78
2022/07/09 11:18:15;;;;;;;;;12.67;9.00;;;;;26.29;70.00;102421.81;5064584;28;46778;-76
2022/07/09 11:20:46;;;;;;;;;10.00;7.33;;;;;26.32;70.05;102421.75;5068198;28;45630;-77
2022/07/09 11:23:12;;;;;;;;;7.00;6.00;;;;;26.36;68.87;102424.28;5063032;28;45793;-78